sensor_id;sensor_type;location;lat;lon;timestamp;pressure;altitude;pressure_sealevel;temperature;humidity
13593;BME280;6867;50.998;4.250;2023-08-21T00:00:54;102061.28;;;20.32;88.39
13593;BME280;6867;50.998;4.250;2023-08-21T00:03:21;102065.66;;;20.33;88.45
13593;BME280;6867;50.998;4.250;2023-08-21T00:05:48;102071.94;;;20.34;88.31
13593;BME280;6867;50.998;4.250;2023-08-21T00:08:15;102067.34;;;20.23;88.62
13593;BME280;6867;50.998;4.250;2023-08-21T00:10:41;102078.31;;;19.99;89.14
13593;BME280;6867;50.998;4.250;2023-08-21T00:13:09;102073.66;;;20.11;89.37
13593;BME280;6867;50.998;4.250;2023-08-21T00:15:37;102076.38;;;20.11;89.04
13593;BME280;6867;50.998;4.250;2023-08-21T00:18:04;102065.97;;;19.97;88.77
13593;BME280;6867;50.998;4.250;2023-08-21T00:20:31;102068.84;;;19.90;89.24
13593;BME280;6867;50.998;4.250;2023-08-21T00:22:58;102077.22;;;19.88;89.13
13593;BME280;6867;50.998;4.250;2023-08-21T00:25:24;102081.03;;;19.76;90.17
13593;BME280;6867;50.998;4.250;2023-08-21T00:27:51;102086.22;;;19.89;89.71
13593;BME280;6867;50.998;4.250;2023-08-21T00:30:19;102087.97;;;20.19;89.25
13593;BME280;6867;50.998;4.250;2023-08-21T00:32:46;102084.38;;;20.42;88.43
13593;BME280;6867;50.998;4.250;2023-08-21T00:35:12;102069.19;;;20.57;87.34
13593;BME280;6867;50.998;4.250;2023-08-21T00:37:39;102055.38;;;20.64;86.43
13593;BME280;6867;50.998;4.250;2023-08-21T00:40:07;102047.72;;;20.49;86.29
13593;BME280;6867;50.998;4.250;2023-08-21T00:42:33;102068.13;;;20.35;86.94
13593;BME280;6867;50.998;4.250;2023-08-21T00:45:00;102076.84;;;20.20;87.49
13593;BME280;6867;50.998;4.250;2023-08-21T00:47:29;102078.88;;;20.13;87.83
13593;BME280;6867;50.998;4.250;2023-08-21T00:49:56;102072.34;;;20.14;87.25
13593;BME280;6867;50.998;4.250;2023-08-21T00:52:23;102068.06;;;20.06;87.72
13593;BME280;6867;50.998;4.250;2023-08-21T00:54:50;102067.84;;;19.96;88.14
13593;BME280;6867;50.998;4.250;2023-08-21T00:57:17;102075.56;;;19.87;89.16
13593;BME280;6867;50.998;4.250;2023-08-21T00:59:44;102079.38;;;19.86;89.41
13593;BME280;6867;50.998;4.250;2023-08-21T01:02:11;102069.19;;;19.82;89.96
13593;BME280;6867;50.998;4.250;2023-08-21T01:04:39;102071.06;;;19.81;90.13
13593;BME280;6867;50.998;4.250;2023-08-21T01:07:06;102072.13;;;19.80;90.37
13593;BME280;6867;50.998;4.250;2023-08-21T01:09:39;102072.38;;;19.90;90.26
13593;BME280;6867;50.998;4.250;2023-08-21T01:12:19;102065.50;;;19.88;89.70
13593;BME280;6867;50.998;4.250;2023-08-21T01:14:53;102066.22;;;19.83;89.91
13593;BME280;6867;50.998;4.250;2023-08-21T01:17:22;102072.94;;;19.57;91.21
13593;BME280;6867;50.998;4.250;2023-08-21T01:19:52;102074.84;;;19.69;90.71
13593;BME280;6867;50.998;4.250;2023-08-21T01:22:19;102077.06;;;19.60;90.09
13593;BME280;6867;50.998;4.250;2023-08-21T01:24:47;102068.56;;;19.68;90.00
13593;BME280;6867;50.998;4.250;2023-08-21T01:27:14;102072.28;;;19.74;89.88
13593;BME280;6867;50.998;4.250;2023-08-21T01:29:41;102079.47;;;19.68;90.85
13593;BME280;6867;50.998;4.250;2023-08-21T01:32:12;102084.47;;;19.83;91.09
13593;BME280;6867;50.998;4.250;2023-08-21T01:34:41;102078.78;;;19.84;90.92
13593;BME280;6867;50.998;4.250;2023-08-21T01:37:09;102079.72;;;19.78;90.52
13593;BME280;6867;50.998;4.250;2023-08-21T01:39:37;102080.56;;;19.90;89.93
13593;BME280;6867;50.998;4.250;2023-08-21T01:42:05;102081.03;;;19.87;89.89
13593;BME280;6867;50.998;4.250;2023-08-21T01:44:32;102088.03;;;19.72;90.19
13593;BME280;6867;50.998;4.250;2023-08-21T01:46:58;102087.97;;;19.60;90.22
13593;BME280;6867;50.998;4.250;2023-08-21T01:49:25;102086.88;;;19.37;90.87
13593;BME280;6867;50.998;4.250;2023-08-21T01:51:52;102090.19;;;19.39;91.19
13593;BME280;6867;50.998;4.250;2023-08-21T01:54:18;102086.78;;;19.44;91.86
13593;BME280;6867;50.998;4.250;2023-08-21T01:56:45;102084.66;;;19.46;91.95
13593;BME280;6867;50.998;4.250;2023-08-21T01:59:16;102087.13;;;19.48;92.28
13593;BME280;6867;50.998;4.250;2023-08-21T02:01:42;102082.03;;;19.39;92.68
13593;BME280;6867;50.998;4.250;2023-08-21T02:04:09;102090.22;;;19.51;91.91
13593;BME280;6867;50.998;4.250;2023-08-21T02:06:36;102088.31;;;19.52;91.49
13593;BME280;6867;50.998;4.250;2023-08-21T02:09:02;102087.13;;;19.48;91.34
13593;BME280;6867;50.998;4.250;2023-08-21T02:11:29;102083.81;;;19.46;91.18
13593;BME280;6867;50.998;4.250;2023-08-21T02:13:56;102082.19;;;19.45;90.63
13593;BME280;6867;50.998;4.250;2023-08-21T02:16:24;102083.72;;;19.40;90.87
13593;BME280;6867;50.998;4.250;2023-08-21T02:18:50;102087.00;;;19.31;91.11
13593;BME280;6867;50.998;4.250;2023-08-21T02:21:17;102087.00;;;19.19;92.13
13593;BME280;6867;50.998;4.250;2023-08-21T02:23:43;102084.75;;;19.28;91.63
13593;BME280;6867;50.998;4.250;2023-08-21T02:26:10;102076.78;;;19.26;91.35
13593;BME280;6867;50.998;4.250;2023-08-21T02:28:37;102075.16;;;19.25;91.77
13593;BME280;6867;50.998;4.250;2023-08-21T02:31:03;102076.44;;;19.23;91.99
13593;BME280;6867;50.998;4.250;2023-08-21T02:33:31;102077.63;;;19.15;92.02
13593;BME280;6867;50.998;4.250;2023-08-21T02:35:58;102081.88;;;19.11;91.96
13593;BME280;6867;50.998;4.250;2023-08-21T02:38:26;102077.94;;;19.07;91.06
13593;BME280;6867;50.998;4.250;2023-08-21T02:40:52;102080.88;;;19.05;91.41
13593;BME280;6867;50.998;4.250;2023-08-21T02:43:19;102081.38;;;19.02;91.78
13593;BME280;6867;50.998;4.250;2023-08-21T02:45:46;102087.84;;;19.01;92.10
13593;BME280;6867;50.998;4.250;2023-08-21T02:48:12;102085.84;;;18.97;92.40
13593;BME280;6867;50.998;4.250;2023-08-21T02:50:40;102089.88;;;18.94;92.86
13593;BME280;6867;50.998;4.250;2023-08-21T02:53:07;102095.91;;;18.96;92.96
13593;BME280;6867;50.998;4.250;2023-08-21T02:55:34;102086.81;;;19.02;92.48
13593;BME280;6867;50.998;4.250;2023-08-21T02:58:01;102087.28;;;18.99;92.42
13593;BME280;6867;50.998;4.250;2023-08-21T03:00:28;102090.31;;;18.91;92.88
13593;BME280;6867;50.998;4.250;2023-08-21T03:02:54;102088.19;;;18.93;92.35
13593;BME280;6867;50.998;4.250;2023-08-21T03:05:21;102094.44;;;18.82;92.45
13593;BME280;6867;50.998;4.250;2023-08-21T03:07:50;102090.69;;;18.95;92.39
13593;BME280;6867;50.998;4.250;2023-08-21T03:10:18;102089.31;;;19.04;92.25
13593;BME280;6867;50.998;4.250;2023-08-21T03:12:45;102091.09;;;19.10;92.21
13593;BME280;6867;50.998;4.250;2023-08-21T03:15:11;102087.91;;;19.13;91.92
13593;BME280;6867;50.998;4.250;2023-08-21T03:17:38;102086.00;;;19.13;91.75
13593;BME280;6867;50.998;4.250;2023-08-21T03:20:05;102086.16;;;18.88;92.17
13593;BME280;6867;50.998;4.250;2023-08-21T03:22:32;102095.63;;;18.67;93.16
13593;BME280;6867;50.998;4.250;2023-08-21T03:25:00;102097.38;;;18.62;93.90
13593;BME280;6867;50.998;4.250;2023-08-21T03:27:27;102091.56;;;18.58;93.91
13593;BME280;6867;50.998;4.250;2023-08-21T03:29:53;102095.13;;;18.59;93.54
13593;BME280;6867;50.998;4.250;2023-08-21T03:32:20;102092.25;;;18.54;93.67
13593;BME280;6867;50.998;4.250;2023-08-21T03:34:47;102095.91;;;18.48;94.07
13593;BME280;6867;50.998;4.250;2023-08-21T03:37:13;102097.19;;;18.45;94.38
13593;BME280;6867;50.998;4.250;2023-08-21T03:39:40;102098.31;;;18.37;94.93
13593;BME280;6867;50.998;4.250;2023-08-21T03:42:08;102095.72;;;18.42;95.34
13593;BME280;6867;50.998;4.250;2023-08-21T03:44:35;102086.28;;;18.45;95.01
13593;BME280;6867;50.998;4.250;2023-08-21T03:47:01;102085.22;;;18.46;94.63
13593;BME280;6867;50.998;4.250;2023-08-21T03:49:28;102087.38;;;18.44;94.67
13593;BME280;6867;50.998;4.250;2023-08-21T03:51:55;102082.81;;;18.38;95.26
13593;BME280;6867;50.998;4.250;2023-08-21T03:54:21;102081.84;;;18.32;94.64
13593;BME280;6867;50.998;4.250;2023-08-21T03:56:48;102080.25;;;18.25;94.79
13593;BME280;6867;50.998;4.250;2023-08-21T03:59:16;102077.00;;;18.16;95.09
13593;BME280;6867;50.998;4.250;2023-08-21T04:01:43;102082.50;;;18.09;95.37
13593;BME280;6867;50.998;4.250;2023-08-21T04:04:09;102080.94;;;18.02;95.35
13593;BME280;6867;50.998;4.250;2023-08-21T04:06:36;102082.50;;;17.91;95.85
13593;BME280;6867;50.998;4.250;2023-08-21T04:09:03;102089.00;;;17.90;95.98
13593;BME280;6867;50.998;4.250;2023-08-21T04:11:31;102093.28;;;17.79;95.90
13593;BME280;6867;50.998;4.250;2023-08-21T04:13:58;102096.03;;;17.73;95.81
13593;BME280;6867;50.998;4.250;2023-08-21T04:16:26;102088.09;;;17.71;96.03
13593;BME280;6867;50.998;4.250;2023-08-21T04:18:53;102105.47;;;17.70;96.28
13593;BME280;6867;50.998;4.250;2023-08-21T04:21:20;102099.59;;;17.73;96.68
13593;BME280;6867;50.998;4.250;2023-08-21T04:23:46;102095.16;;;17.79;96.54
13593;BME280;6867;50.998;4.250;2023-08-21T04:26:13;102104.78;;;17.81;96.55
13593;BME280;6867;50.998;4.250;2023-08-21T04:28:40;102104.81;;;17.75;97.17
13593;BME280;6867;50.998;4.250;2023-08-21T04:31:07;102104.31;;;17.84;97.03
13593;BME280;6867;50.998;4.250;2023-08-21T04:33:35;102109.91;;;17.89;97.03
13593;BME280;6867;50.998;4.250;2023-08-21T04:36:02;102110.22;;;17.81;97.28
13593;BME280;6867;50.998;4.250;2023-08-21T04:38:29;102101.38;;;17.86;97.64
13593;BME280;6867;50.998;4.250;2023-08-21T04:40:55;102104.00;;;17.92;96.55
13593;BME280;6867;50.998;4.250;2023-08-21T04:43:22;102110.22;;;18.00;96.45
13593;BME280;6867;50.998;4.250;2023-08-21T04:45:50;102113.84;;;17.94;97.08
13593;BME280;6867;50.998;4.250;2023-08-21T04:48:18;102111.44;;;18.04;96.71
13593;BME280;6867;50.998;4.250;2023-08-21T04:50:47;102111.44;;;18.04;96.43
13593;BME280;6867;50.998;4.250;2023-08-21T04:53:14;102105.19;;;18.03;96.22
13593;BME280;6867;50.998;4.250;2023-08-21T04:55:41;102104.50;;;18.08;96.03
13593;BME280;6867;50.998;4.250;2023-08-21T04:58:08;102108.50;;;18.05;95.77
13593;BME280;6867;50.998;4.250;2023-08-21T05:00:35;102113.19;;;17.98;96.04
13593;BME280;6867;50.998;4.250;2023-08-21T05:03:02;102112.94;;;18.00;95.88
13593;BME280;6867;50.998;4.250;2023-08-21T05:05:29;102112.94;;;18.00;96.24
13593;BME280;6867;50.998;4.250;2023-08-21T05:07:57;102119.38;;;18.05;95.69
13593;BME280;6867;50.998;4.250;2023-08-21T05:10:23;102118.09;;;18.08;95.53
13593;BME280;6867;50.998;4.250;2023-08-21T05:12:50;102117.19;;;18.14;95.51
13593;BME280;6867;50.998;4.250;2023-08-21T05:15:17;102117.13;;;18.21;95.37
13593;BME280;6867;50.998;4.250;2023-08-21T05:17:43;102117.22;;;18.32;94.91
13593;BME280;6867;50.998;4.250;2023-08-21T05:20:10;102123.19;;;18.41;94.58
13593;BME280;6867;50.998;4.250;2023-08-21T05:22:39;102119.31;;;18.49;93.95
13593;BME280;6867;50.998;4.250;2023-08-21T05:25:09;102113.94;;;18.60;93.33
13593;BME280;6867;50.998;4.250;2023-08-21T05:27:36;102127.03;;;18.70;93.12
13593;BME280;6867;50.998;4.250;2023-08-21T05:30:03;102128.97;;;18.63;92.22
13593;BME280;6867;50.998;4.250;2023-08-21T05:32:30;102124.31;;;18.70;92.17
13593;BME280;6867;50.998;4.250;2023-08-21T05:34:56;102137.09;;;18.70;92.40
13593;BME280;6867;50.998;4.250;2023-08-21T05:37:23;102130.19;;;18.85;92.23
13593;BME280;6867;50.998;4.250;2023-08-21T05:39:52;102144.66;;;18.98;91.87
13593;BME280;6867;50.998;4.250;2023-08-21T05:42:20;102140.34;;;19.08;91.45
13593;BME280;6867;50.998;4.250;2023-08-21T05:44:47;102142.75;;;19.16;91.08
13593;BME280;6867;50.998;4.250;2023-08-21T05:47:13;102148.72;;;19.37;90.77
13593;BME280;6867;50.998;4.250;2023-08-21T05:49:40;102148.28;;;19.52;90.46
13593;BME280;6867;50.998;4.250;2023-08-21T05:52:08;102152.03;;;19.69;90.02
13593;BME280;6867;50.998;4.250;2023-08-21T05:54:35;102154.16;;;19.67;89.59
13593;BME280;6867;50.998;4.250;2023-08-21T05:57:02;102156.78;;;19.85;89.01
13593;BME280;6867;50.998;4.250;2023-08-21T05:59:32;102166.41;;;20.11;88.96
13593;BME280;6867;50.998;4.250;2023-08-21T06:01:59;102159.38;;;20.27;88.13
13593;BME280;6867;50.998;4.250;2023-08-21T06:04:26;102160.81;;;20.30;87.03
13593;BME280;6867;50.998;4.250;2023-08-21T06:06:53;102163.75;;;20.52;86.50
13593;BME280;6867;50.998;4.250;2023-08-21T06:09:20;102168.06;;;20.88;85.91
13593;BME280;6867;50.998;4.250;2023-08-21T06:11:46;102167.38;;;21.09;84.45
13593;BME280;6867;50.998;4.250;2023-08-21T06:14:13;102176.19;;;21.40;83.65
13593;BME280;6867;50.998;4.250;2023-08-21T06:16:41;102172.00;;;21.49;82.44
13593;BME280;6867;50.998;4.250;2023-08-21T06:19:09;102168.22;;;21.38;81.38
13593;BME280;6867;50.998;4.250;2023-08-21T06:21:35;102167.66;;;21.36;80.93
13593;BME280;6867;50.998;4.250;2023-08-21T06:24:02;102166.09;;;21.41;80.92
13593;BME280;6867;50.998;4.250;2023-08-21T06:26:29;102165.03;;;21.30;81.10
13593;BME280;6867;50.998;4.250;2023-08-21T06:28:55;102167.09;;;21.23;80.61
13593;BME280;6867;50.998;4.250;2023-08-21T06:31:22;102166.25;;;21.34;80.36
13593;BME280;6867;50.998;4.250;2023-08-21T06:33:50;102173.88;;;21.32;80.08
13593;BME280;6867;50.998;4.250;2023-08-21T06:36:17;102171.31;;;21.42;79.90
13593;BME280;6867;50.998;4.250;2023-08-21T06:38:43;102170.00;;;21.45;79.69
13593;BME280;6867;50.998;4.250;2023-08-21T06:41:10;102167.16;;;21.39;79.50
13593;BME280;6867;50.998;4.250;2023-08-21T06:43:37;102170.72;;;21.40;79.86
13593;BME280;6867;50.998;4.250;2023-08-21T06:46:04;102172.13;;;21.43;80.77
13593;BME280;6867;50.998;4.250;2023-08-21T06:48:30;102169.81;;;21.51;80.86
13593;BME280;6867;50.998;4.250;2023-08-21T06:50:58;102166.00;;;21.52;80.51
13593;BME280;6867;50.998;4.250;2023-08-21T06:53:25;102173.06;;;21.65;80.42
13593;BME280;6867;50.998;4.250;2023-08-21T06:55:51;102169.34;;;21.71;79.99
13593;BME280;6867;50.998;4.250;2023-08-21T06:58:18;102173.47;;;21.57;80.33
13593;BME280;6867;50.998;4.250;2023-08-21T07:00:45;102175.47;;;21.61;80.46
13593;BME280;6867;50.998;4.250;2023-08-21T07:03:11;102170.91;;;21.67;80.71
13593;BME280;6867;50.998;4.250;2023-08-21T07:05:38;102177.63;;;21.76;80.67
13593;BME280;6867;50.998;4.250;2023-08-21T07:08:06;102177.81;;;21.86;80.41
13593;BME280;6867;50.998;4.250;2023-08-21T07:10:35;102186.09;;;21.92;80.66
13593;BME280;6867;50.998;4.250;2023-08-21T07:13:02;102179.53;;;21.93;80.48
13593;BME280;6867;50.998;4.250;2023-08-21T07:15:29;102190.22;;;21.94;80.66
13593;BME280;6867;50.998;4.250;2023-08-21T07:17:56;102188.41;;;22.00;80.82
13593;BME280;6867;50.998;4.250;2023-08-21T07:20:23;102187.75;;;21.93;80.94
13593;BME280;6867;50.998;4.250;2023-08-21T07:22:49;102181.09;;;22.05;80.59
13593;BME280;6867;50.998;4.250;2023-08-21T07:25:17;102185.91;;;22.15;80.23
13593;BME280;6867;50.998;4.250;2023-08-21T07:27:44;102188.41;;;22.17;80.23
13593;BME280;6867;50.998;4.250;2023-08-21T07:30:11;102196.44;;;22.23;80.62
13593;BME280;6867;50.998;4.250;2023-08-21T07:32:38;102194.53;;;22.24;79.87
13593;BME280;6867;50.998;4.250;2023-08-21T07:35:05;102187.94;;;22.20;79.61
13593;BME280;6867;50.998;4.250;2023-08-21T07:37:32;102196.97;;;22.20;80.25
13593;BME280;6867;50.998;4.250;2023-08-21T07:39:58;102207.47;;;22.28;81.36
13593;BME280;6867;50.998;4.250;2023-08-21T07:42:26;102212.59;;;22.42;80.22
13593;BME280;6867;50.998;4.250;2023-08-21T07:44:53;102219.38;;;22.39;80.43
13593;BME280;6867;50.998;4.250;2023-08-21T07:47:20;102207.97;;;22.64;79.89
13593;BME280;6867;50.998;4.250;2023-08-21T07:49:46;102206.19;;;22.75;78.96
13593;BME280;6867;50.998;4.250;2023-08-21T07:52:13;102210.66;;;23.03;78.98
13593;BME280;6867;50.998;4.250;2023-08-21T07:54:41;102203.41;;;23.14;78.32
13593;BME280;6867;50.998;4.250;2023-08-21T07:57:08;102205.78;;;23.32;77.54
13593;BME280;6867;50.998;4.250;2023-08-21T07:59:36;102208.34;;;23.44;76.94
13593;BME280;6867;50.998;4.250;2023-08-21T08:02:03;102217.50;;;23.27;77.64
13593;BME280;6867;50.998;4.250;2023-08-21T08:04:29;102216.84;;;23.42;77.01
13593;BME280;6867;50.998;4.250;2023-08-21T08:06:56;102212.97;;;23.38;76.42
13593;BME280;6867;50.998;4.250;2023-08-21T08:09:23;102200.03;;;23.33;75.14
13593;BME280;6867;50.998;4.250;2023-08-21T08:11:50;102213.28;;;23.42;75.77
13593;BME280;6867;50.998;4.250;2023-08-21T08:14:17;102196.84;;;23.42;74.99
13593;BME280;6867;50.998;4.250;2023-08-21T08:16:45;102211.06;;;23.39;75.92
13593;BME280;6867;50.998;4.250;2023-08-21T08:19:11;102204.94;;;23.58;74.17
13593;BME280;6867;50.998;4.250;2023-08-21T08:21:38;102217.06;;;23.63;75.16
13593;BME280;6867;50.998;4.250;2023-08-21T08:24:05;102211.78;;;23.83;74.29
13593;BME280;6867;50.998;4.250;2023-08-21T08:26:31;102217.47;;;23.76;74.43
13593;BME280;6867;50.998;4.250;2023-08-21T08:28:58;102214.25;;;23.84;74.25
13593;BME280;6867;50.998;4.250;2023-08-21T08:31:25;102206.69;;;24.02;73.52
13593;BME280;6867;50.998;4.250;2023-08-21T08:33:54;102194.69;;;24.08;71.48
13593;BME280;6867;50.998;4.250;2023-08-21T08:36:21;102200.19;;;24.13;71.43
13593;BME280;6867;50.998;4.250;2023-08-21T08:38:47;102190.41;;;24.27;70.32
13593;BME280;6867;50.998;4.250;2023-08-21T08:41:25;102194.94;;;24.49;70.73
13593;BME280;6867;50.998;4.250;2023-08-21T08:43:56;102217.25;;;24.20;72.33
13593;BME280;6867;50.998;4.250;2023-08-21T08:46:23;102220.41;;;24.02;73.12
13593;BME280;6867;50.998;4.250;2023-08-21T08:48:50;102216.22;;;24.26;73.18
13593;BME280;6867;50.998;4.250;2023-08-21T08:51:19;102204.41;;;24.73;71.42
13593;BME280;6867;50.998;4.250;2023-08-21T08:53:47;102202.13;;;24.55;71.25
13593;BME280;6867;50.998;4.250;2023-08-21T08:56:14;102190.97;;;24.29;70.65
13593;BME280;6867;50.998;4.250;2023-08-21T08:58:40;102166.13;;;24.51;67.94
13593;BME280;6867;50.998;4.250;2023-08-21T09:01:08;102167.50;;;24.54;68.00
13593;BME280;6867;50.998;4.250;2023-08-21T09:03:36;102182.94;;;24.65;68.55
13593;BME280;6867;50.998;4.250;2023-08-21T09:06:03;102166.50;;;24.80;67.97
13593;BME280;6867;50.998;4.250;2023-08-21T09:08:31;102163.22;;;24.83;67.68
13593;BME280;6867;50.998;4.250;2023-08-21T09:11:01;102158.31;;;25.01;66.29
13593;BME280;6867;50.998;4.250;2023-08-21T09:13:30;102158.31;;;25.01;65.58
13593;BME280;6867;50.998;4.250;2023-08-21T09:15:58;102172.31;;;24.99;66.37
13593;BME280;6867;50.998;4.250;2023-08-21T09:18:25;102180.16;;;24.60;67.59
13593;BME280;6867;50.998;4.250;2023-08-21T09:20:52;102176.09;;;24.78;66.97
13593;BME280;6867;50.998;4.250;2023-08-21T09:23:19;102172.31;;;24.94;66.74
13593;BME280;6867;50.998;4.250;2023-08-21T09:25:48;102162.22;;;25.20;65.80
13593;BME280;6867;50.998;4.250;2023-08-21T09:28:17;102151.78;;;25.32;64.62
13593;BME280;6867;50.998;4.250;2023-08-21T09:30:49;102152.09;;;25.46;64.11
13593;BME280;6867;50.998;4.250;2023-08-21T09:33:19;102183.97;;;25.37;65.79
13593;BME280;6867;50.998;4.250;2023-08-21T09:35:46;102166.94;;;25.45;64.56
13593;BME280;6867;50.998;4.250;2023-08-21T09:38:13;102109.72;;;25.47;60.55
13593;BME280;6867;50.998;4.250;2023-08-21T09:40:41;102121.56;;;25.48;60.42
13593;BME280;6867;50.998;4.250;2023-08-21T09:43:11;102114.97;;;25.59;59.51
13593;BME280;6867;50.998;4.250;2023-08-21T09:45:38;102133.66;;;25.82;60.41
13593;BME280;6867;50.998;4.250;2023-08-21T09:48:05;102123.75;;;25.87;60.17
13593;BME280;6867;50.998;4.250;2023-08-21T09:50:33;102104.50;;;25.71;59.00
13593;BME280;6867;50.998;4.250;2023-08-21T09:53:01;102084.38;;;25.86;57.33
13593;BME280;6867;50.998;4.250;2023-08-21T09:55:31;102101.47;;;25.78;57.83
13593;BME280;6867;50.998;4.250;2023-08-21T09:57:59;102104.72;;;26.05;57.26
13593;BME280;6867;50.998;4.250;2023-08-21T10:00:29;102120.91;;;26.22;57.72
13593;BME280;6867;50.998;4.250;2023-08-21T10:02:59;102091.78;;;26.06;56.81
13593;BME280;6867;50.998;4.250;2023-08-21T10:05:27;102118.81;;;25.89;58.25
13593;BME280;6867;50.998;4.250;2023-08-21T10:07:55;102114.84;;;26.20;57.66
13593;BME280;6867;50.998;4.250;2023-08-21T10:10:22;102139.03;;;26.39;58.43
13593;BME280;6867;50.998;4.250;2023-08-21T10:12:50;102126.09;;;26.44;58.16
13593;BME280;6867;50.998;4.250;2023-08-21T10:15:17;102155.28;;;26.40;59.32
13593;BME280;6867;50.998;4.250;2023-08-21T10:17:45;102139.31;;;26.37;58.94
13593;BME280;6867;50.998;4.250;2023-08-21T10:20:12;102121.53;;;25.99;59.37
13593;BME280;6867;50.998;4.250;2023-08-21T10:22:39;102148.72;;;26.26;59.77
13593;BME280;6867;50.998;4.250;2023-08-21T10:25:18;102140.72;;;26.35;59.29
13593;BME280;6867;50.998;4.250;2023-08-21T10:27:50;102154.50;;;26.24;60.60
13593;BME280;6867;50.998;4.250;2023-08-21T10:30:20;102129.09;;;26.38;58.92
13593;BME280;6867;50.998;4.250;2023-08-21T10:32:50;102129.31;;;26.62;58.42
13593;BME280;6867;50.998;4.250;2023-08-21T10:35:19;102092.34;;;26.73;56.34
13593;BME280;6867;50.998;4.250;2023-08-21T10:38:08;102100.56;;;26.78;56.66
13593;BME280;6867;50.998;4.250;2023-08-21T10:40:36;102124.56;;;26.77;58.12
13593;BME280;6867;50.998;4.250;2023-08-21T10:43:03;102107.66;;;26.89;57.65
13593;BME280;6867;50.998;4.250;2023-08-21T10:45:30;102082.31;;;26.87;56.05
13593;BME280;6867;50.998;4.250;2023-08-21T10:47:59;102105.88;;;26.64;57.21
13593;BME280;6867;50.998;4.250;2023-08-21T10:50:26;102121.84;;;26.72;58.48
13593;BME280;6867;50.998;4.250;2023-08-21T10:52:53;102148.22;;;26.83;59.63
13593;BME280;6867;50.998;4.250;2023-08-21T10:55:20;102108.81;;;27.27;57.14
13593;BME280;6867;50.998;4.250;2023-08-21T10:57:48;102095.38;;;27.16;56.15
13593;BME280;6867;50.998;4.250;2023-08-21T11:00:16;102042.72;;;27.12;53.41
13593;BME280;6867;50.998;4.250;2023-08-21T11:02:45;102079.97;;;26.65;55.34
13593;BME280;6867;50.998;4.250;2023-08-21T11:05:14;102072.19;;;26.77;54.65
13593;BME280;6867;50.998;4.250;2023-08-21T11:07:42;102040.94;;;26.92;52.80
13593;BME280;6867;50.998;4.250;2023-08-21T11:10:11;102059.59;;;27.00;52.89
13593;BME280;6867;50.998;4.250;2023-08-21T11:12:48;102076.63;;;27.13;53.05
13593;BME280;6867;50.998;4.250;2023-08-21T11:15:15;102066.19;;;27.10;53.15
13593;BME280;6867;50.998;4.250;2023-08-21T11:17:42;102027.56;;;26.70;51.42
13593;BME280;6867;50.998;4.250;2023-08-21T11:20:09;102033.06;;;27.15;50.82
13593;BME280;6867;50.998;4.250;2023-08-21T11:22:38;102037.13;;;27.22;50.99
13593;BME280;6867;50.998;4.250;2023-08-21T11:25:06;102090.63;;;27.26;52.70
13593;BME280;6867;50.998;4.250;2023-08-21T11:27:32;102081.75;;;27.29;52.90
13593;BME280;6867;50.998;4.250;2023-08-21T11:30:00;102077.69;;;27.22;53.03
13593;BME280;6867;50.998;4.250;2023-08-21T11:32:27;102076.38;;;27.72;52.84
13593;BME280;6867;50.998;4.250;2023-08-21T11:34:55;102052.75;;;27.90;51.75
13593;BME280;6867;50.998;4.250;2023-08-21T11:37:23;102032.69;;;28.03;50.44
13593;BME280;6867;50.998;4.250;2023-08-21T11:39:53;102105.97;;;28.20;53.21
13593;BME280;6867;50.998;4.250;2023-08-21T11:42:21;102105.97;;;28.20;54.12
13593;BME280;6867;50.998;4.250;2023-08-21T11:44:50;102038.44;;;28.31;51.62
13593;BME280;6867;50.998;4.250;2023-08-21T11:47:19;102039.41;;;27.97;51.59
13593;BME280;6867;50.998;4.250;2023-08-21T11:49:47;102016.72;;;28.00;50.35
13593;BME280;6867;50.998;4.250;2023-08-21T11:52:18;102035.19;;;28.05;50.59
13593;BME280;6867;50.998;4.250;2023-08-21T11:54:48;102063.72;;;27.95;51.72
13593;BME280;6867;50.998;4.250;2023-08-21T11:57:16;102048.84;;;28.15;51.20
13593;BME280;6867;50.998;4.250;2023-08-21T11:59:49;101979.16;;;27.80;49.49
13593;BME280;6867;50.998;4.250;2023-08-21T12:02:18;102009.13;;;28.11;49.56
13593;BME280;6867;50.998;4.250;2023-08-21T12:04:45;102017.88;;;28.18;49.48
13593;BME280;6867;50.998;4.250;2023-08-21T12:07:13;102006.72;;;28.04;49.79
13593;BME280;6867;50.998;4.250;2023-08-21T12:09:45;102011.31;;;28.14;49.81
13593;BME280;6867;50.998;4.250;2023-08-21T12:12:12;102023.00;;;28.06;50.30
13593;BME280;6867;50.998;4.250;2023-08-21T12:14:40;102023.25;;;28.28;49.56
13593;BME280;6867;50.998;4.250;2023-08-21T12:17:07;102031.97;;;28.41;50.23
13593;BME280;6867;50.998;4.250;2023-08-21T12:19:33;102026.97;;;28.43;50.36
13593;BME280;6867;50.998;4.250;2023-08-21T12:22:00;102035.66;;;28.31;51.35
13593;BME280;6867;50.998;4.250;2023-08-21T12:24:27;102057.78;;;28.31;51.19
13593;BME280;6867;50.998;4.250;2023-08-21T12:26:53;102042.78;;;28.13;51.22
13593;BME280;6867;50.998;4.250;2023-08-21T12:29:21;102049.75;;;28.11;51.25
13593;BME280;6867;50.998;4.250;2023-08-21T12:31:49;102024.00;;;28.39;50.11
13593;BME280;6867;50.998;4.250;2023-08-21T12:34:15;102050.63;;;28.30;51.44
13593;BME280;6867;50.998;4.250;2023-08-21T12:36:42;101988.56;;;28.60;47.79
13593;BME280;6867;50.998;4.250;2023-08-21T12:39:09;101943.16;;;28.47;45.85
13593;BME280;6867;50.998;4.250;2023-08-21T12:41:35;102002.31;;;28.46;48.18
13593;BME280;6867;50.998;4.250;2023-08-21T12:44:02;101978.19;;;28.52;46.90
13593;BME280;6867;50.998;4.250;2023-08-21T12:46:29;101960.56;;;28.48;46.06
13593;BME280;6867;50.998;4.250;2023-08-21T12:48:57;101954.44;;;28.51;45.38
13593;BME280;6867;50.998;4.250;2023-08-21T12:51:24;101956.72;;;28.82;45.14
13593;BME280;6867;50.998;4.250;2023-08-21T12:53:51;101976.56;;;29.02;45.96
13593;BME280;6867;50.998;4.250;2023-08-21T12:56:18;101967.41;;;28.69;45.91
13593;BME280;6867;50.998;4.250;2023-08-21T12:58:45;102009.28;;;28.95;47.52
13593;BME280;6867;50.998;4.250;2023-08-21T13:01:12;101963.00;;;28.68;46.02